sensor_id;sensor_type;location;lat;lon;timestamp;pressure;altitude;pressure_sealevel;temperature
54746;BMP180;40640;48.130;11.356;2022-08-21T00:03:30;95762.00;;;16.30
54746;BMP180;40640;48.130;11.356;2022-08-21T00:07:34;95754.00;;;16.30
54746;BMP180;40640;48.130;11.356;2022-08-21T00:11:38;95756.00;;;16.20
54746;BMP180;40640;48.130;11.356;2022-08-21T00:15:42;95756.00;;;16.20
54746;BMP180;40640;48.130;11.356;2022-08-21T00:19:46;95755.00;;;16.10
54746;BMP180;40640;48.130;11.356;2022-08-21T00:23:50;95748.00;;;16.10
54746;BMP180;40640;48.130;11.356;2022-08-21T00:27:53;95743.00;;;16.10
54746;BMP180;40640;48.130;11.356;2022-08-21T00:31:56;95740.00;;;16.00
54746;BMP180;40640;48.130;11.356;2022-08-21T00:35:58;95736.00;;;16.00
54746;BMP180;40640;48.130;11.356;2022-08-21T00:40:04;95747.00;;;16.00
54746;BMP180;40640;48.130;11.356;2022-08-21T00:44:11;95746.00;;;15.90
54746;BMP180;40640;48.130;11.356;2022-08-21T00:48:15;95738.00;;;16.00
54746;BMP180;40640;48.130;11.356;2022-08-21T00:52:22;95738.00;;;16.00
54746;BMP180;40640;48.130;11.356;2022-08-21T00:56:27;95748.00;;;16.00
54746;BMP180;40640;48.130;11.356;2022-08-21T01:00:34;95736.00;;;15.90
54746;BMP180;40640;48.130;11.356;2022-08-21T01:04:38;95739.00;;;15.80
54746;BMP180;40640;48.130;11.356;2022-08-21T01:08:40;95740.00;;;15.80
54746;BMP180;40640;48.130;11.356;2022-08-21T01:12:49;95731.00;;;15.70
54746;BMP180;40640;48.130;11.356;2022-08-21T01:16:53;95727.00;;;15.70
54746;BMP180;40640;48.130;11.356;2022-08-21T01:21:05;95725.00;;;15.70
54746;BMP180;40640;48.130;11.356;2022-08-21T01:25:10;95731.00;;;15.60
54746;BMP180;40640;48.130;11.356;2022-08-21T01:29:26;95723.00;;;15.60
54746;BMP180;40640;48.130;11.356;2022-08-21T01:33:31;95722.00;;;15.60
54746;BMP180;40640;48.130;11.356;2022-08-21T01:37:35;95724.00;;;15.60
54746;BMP180;40640;48.130;11.356;2022-08-21T01:41:38;95725.00;;;15.50
54746;BMP180;40640;48.130;11.356;2022-08-21T01:45:41;95724.00;;;15.50
54746;BMP180;40640;48.130;11.356;2022-08-21T01:49:44;95729.00;;;15.50
54746;BMP180;40640;48.130;11.356;2022-08-21T01:53:48;95725.00;;;15.40
54746;BMP180;40640;48.130;11.356;2022-08-21T01:57:51;95714.00;;;15.30
54746;BMP180;40640;48.130;11.356;2022-08-21T02:01:54;95708.00;;;15.30
54746;BMP180;40640;48.130;11.356;2022-08-21T02:05:58;95708.00;;;15.30
54746;BMP180;40640;48.130;11.356;2022-08-21T02:10:03;95701.00;;;15.30
54746;BMP180;40640;48.130;11.356;2022-08-21T02:14:07;95700.00;;;15.20
54746;BMP180;40640;48.130;11.356;2022-08-21T02:18:10;95696.00;;;15.20
54746;BMP180;40640;48.130;11.356;2022-08-21T02:22:13;95685.00;;;15.10
54746;BMP180;40640;48.130;11.356;2022-08-21T02:26:18;95692.00;;;15.10
54746;BMP180;40640;48.130;11.356;2022-08-21T02:30:24;95698.00;;;15.10
54746;BMP180;40640;48.130;11.356;2022-08-21T02:34:27;95695.00;;;15.10
54746;BMP180;40640;48.130;11.356;2022-08-21T02:38:31;95693.00;;;15.10
54746;BMP180;40640;48.130;11.356;2022-08-21T02:42:37;95699.00;;;15.10
54746;BMP180;40640;48.130;11.356;2022-08-21T02:46:40;95696.00;;;15.00
54746;BMP180;40640;48.130;11.356;2022-08-21T02:50:45;95697.00;;;15.00
54746;BMP180;40640;48.130;11.356;2022-08-21T02:54:49;95693.00;;;14.90
54746;BMP180;40640;48.130;11.356;2022-08-21T02:58:53;95690.00;;;14.90
54746;BMP180;40640;48.130;11.356;2022-08-21T03:02:56;95686.00;;;14.90
54746;BMP180;40640;48.130;11.356;2022-08-21T03:06:59;95684.00;;;14.90
54746;BMP180;40640;48.130;11.356;2022-08-21T03:11:03;95685.00;;;14.90
54746;BMP180;40640;48.130;11.356;2022-08-21T03:15:12;95685.00;;;14.90
54746;BMP180;40640;48.130;11.356;2022-08-21T03:19:15;95681.00;;;14.90
54746;BMP180;40640;48.130;11.356;2022-08-21T03:23:18;95691.00;;;14.80
54746;BMP180;40640;48.130;11.356;2022-08-21T03:27:21;95692.00;;;14.90
54746;BMP180;40640;48.130;11.356;2022-08-21T03:31:31;95696.00;;;14.90
54746;BMP180;40640;48.130;11.356;2022-08-21T03:35:33;95698.00;;;14.80
54746;BMP180;40640;48.130;11.356;2022-08-21T03:39:37;95689.00;;;14.80
54746;BMP180;40640;48.130;11.356;2022-08-21T03:43:40;95682.00;;;14.70
54746;BMP180;40640;48.130;11.356;2022-08-21T03:47:53;95689.00;;;14.70
54746;BMP180;40640;48.130;11.356;2022-08-21T03:51:57;95687.00;;;14.60
54746;BMP180;40640;48.130;11.356;2022-08-21T03:56:00;95694.00;;;14.60
54746;BMP180;40640;48.130;11.356;2022-08-21T04:00:04;95700.00;;;14.50
54746;BMP180;40640;48.130;11.356;2022-08-21T04:04:10;95706.00;;;14.60
54746;BMP180;40640;48.130;11.356;2022-08-21T04:08:16;95702.00;;;14.50
54746;BMP180;40640;48.130;11.356;2022-08-21T04:12:20;95700.00;;;14.50
54746;BMP180;40640;48.130;11.356;2022-08-21T04:16:23;95700.00;;;14.40
54746;BMP180;40640;48.130;11.356;2022-08-21T04:20:27;95714.00;;;14.40
54746;BMP180;40640;48.130;11.356;2022-08-21T04:24:30;95707.00;;;14.40
54746;BMP180;40640;48.130;11.356;2022-08-21T04:28:34;95711.00;;;14.50
54746;BMP180;40640;48.130;11.356;2022-08-21T04:32:37;95715.00;;;14.50
54746;BMP180;40640;48.130;11.356;2022-08-21T04:36:42;95718.00;;;14.60
54746;BMP180;40640;48.130;11.356;2022-08-21T04:40:44;95716.00;;;14.60
54746;BMP180;40640;48.130;11.356;2022-08-21T04:44:47;95723.00;;;14.60
54746;BMP180;40640;48.130;11.356;2022-08-21T04:48:50;95722.00;;;14.60
54746;BMP180;40640;48.130;11.356;2022-08-21T04:52:55;95733.00;;;14.60
54746;BMP180;40640;48.130;11.356;2022-08-21T04:57:00;95731.00;;;14.70
54746;BMP180;40640;48.130;11.356;2022-08-21T05:01:07;95736.00;;;14.80
54746;BMP180;40640;48.130;11.356;2022-08-21T05:05:11;95722.00;;;14.70
54746;BMP180;40640;48.130;11.356;2022-08-21T05:09:16;95732.00;;;14.80
54746;BMP180;40640;48.130;11.356;2022-08-21T05:13:20;95728.00;;;14.80
54746;BMP180;40640;48.130;11.356;2022-08-21T05:17:23;95733.00;;;14.90
54746;BMP180;40640;48.130;11.356;2022-08-21T05:21:26;95731.00;;;14.90
54746;BMP180;40640;48.130;11.356;2022-08-21T05:25:30;95729.00;;;15.00
54746;BMP180;40640;48.130;11.356;2022-08-21T05:29:35;95728.00;;;15.10
54746;BMP180;40640;48.130;11.356;2022-08-21T05:33:38;95737.00;;;15.30
54746;BMP180;40640;48.130;11.356;2022-08-21T05:37:44;95732.00;;;15.50
54746;BMP180;40640;48.130;11.356;2022-08-21T05:41:48;95725.00;;;16.00
54746;BMP180;40640;48.130;11.356;2022-08-21T05:45:51;95722.00;;;16.90
54746;BMP180;40640;48.130;11.356;2022-08-21T05:49:54;95733.00;;;19.00
54746;BMP180;40640;48.130;11.356;2022-08-21T05:53:57;95734.00;;;22.20
54746;BMP180;40640;48.130;11.356;2022-08-21T05:58:01;95734.00;;;23.90
54746;BMP180;40640;48.130;11.356;2022-08-21T06:02:04;95725.00;;;25.10
54746;BMP180;40640;48.130;11.356;2022-08-21T06:06:09;95714.00;;;26.20
54746;BMP180;40640;48.130;11.356;2022-08-21T06:10:12;95716.00;;;27.30
54746;BMP180;40640;48.130;11.356;2022-08-21T06:14:18;95717.00;;;25.30
54746;BMP180;40640;48.130;11.356;2022-08-21T06:18:21;95721.00;;;26.20
54746;BMP180;40640;48.130;11.356;2022-08-21T06:22:24;95730.00;;;27.40
54746;BMP180;40640;48.130;11.356;2022-08-21T06:26:27;95737.00;;;28.10
54746;BMP180;40640;48.130;11.356;2022-08-21T06:30:32;95745.00;;;26.50
54746;BMP180;40640;48.130;11.356;2022-08-21T06:34:36;95739.00;;;26.60
54746;BMP180;40640;48.130;11.356;2022-08-21T06:38:39;95743.00;;;27.20
54746;BMP180;40640;48.130;11.356;2022-08-21T06:42:51;95746.00;;;26.80
54746;BMP180;40640;48.130;11.356;2022-08-21T06:46:55;95746.00;;;26.00
54746;BMP180;40640;48.130;11.356;2022-08-21T06:50:58;95752.00;;;24.70
54746;BMP180;40640;48.130;11.356;2022-08-21T06:55:02;95746.00;;;24.20
54746;BMP180;40640;48.130;11.356;2022-08-21T06:59:05;95749.00;;;24.00
54746;BMP180;40640;48.130;11.356;2022-08-21T07:03:16;95762.00;;;23.90
54746;BMP180;40640;48.130;11.356;2022-08-21T07:07:19;95757.00;;;23.20
54746;BMP180;40640;48.130;11.356;2022-08-21T07:11:24;95755.00;;;22.00
54746;BMP180;40640;48.130;11.356;2022-08-21T07:15:27;95751.00;;;23.50
54746;BMP180;40640;48.130;11.356;2022-08-21T07:19:32;95753.00;;;24.00
54746;BMP180;40640;48.130;11.356;2022-08-21T07:23:37;95750.00;;;22.90
54746;BMP180;40640;48.130;11.356;2022-08-21T07:27:40;95756.00;;;23.20
54746;BMP180;40640;48.130;11.356;2022-08-21T07:31:43;95754.00;;;22.10
54746;BMP180;40640;48.130;11.356;2022-08-21T07:35:47;95751.00;;;22.30
54746;BMP180;40640;48.130;11.356;2022-08-21T07:39:50;95759.00;;;21.60
54746;BMP180;40640;48.130;11.356;2022-08-21T07:43:53;95759.00;;;21.30
54746;BMP180;40640;48.130;11.356;2022-08-21T07:47:57;95765.00;;;22.60
54746;BMP180;40640;48.130;11.356;2022-08-21T07:52:01;95755.00;;;23.00
54746;BMP180;40640;48.130;11.356;2022-08-21T07:56:05;95751.00;;;24.90
54746;BMP180;40640;48.130;11.356;2022-08-21T08:00:13;95738.00;;;25.70
54746;BMP180;40640;48.130;11.356;2022-08-21T08:04:17;95739.00;;;27.60
54746;BMP180;40640;48.130;11.356;2022-08-21T08:08:28;95730.00;;;28.10
54746;BMP180;40640;48.130;11.356;2022-08-21T08:12:30;95732.00;;;27.50
54746;BMP180;40640;48.130;11.356;2022-08-21T08:16:33;95731.00;;;29.00
54746;BMP180;40640;48.130;11.356;2022-08-21T08:20:36;95731.00;;;30.20
54746;BMP180;40640;48.130;11.356;2022-08-21T08:24:40;95719.00;;;32.80
54746;BMP180;40640;48.130;11.356;2022-08-21T08:28:43;95717.00;;;34.80
54746;BMP180;40640;48.130;11.356;2022-08-21T08:32:48;95720.00;;;34.00
54746;BMP180;40640;48.130;11.356;2022-08-21T08:36:51;95719.00;;;33.60
54746;BMP180;40640;48.130;11.356;2022-08-21T08:41:00;95710.00;;;35.00
54746;BMP180;40640;48.130;11.356;2022-08-21T08:45:06;95705.00;;;35.90
54746;BMP180;40640;48.130;11.356;2022-08-21T08:49:13;95709.00;;;36.80
54746;BMP180;40640;48.130;11.356;2022-08-21T08:53:22;95708.00;;;36.70
54746;BMP180;40640;48.130;11.356;2022-08-21T08:57:28;95722.00;;;36.30
54746;BMP180;40640;48.130;11.356;2022-08-21T09:01:31;95748.00;;;34.70
54746;BMP180;40640;48.130;11.356;2022-08-21T09:05:43;95719.00;;;33.90
54746;BMP180;40640;48.130;11.356;2022-08-21T09:10:02;95723.00;;;33.40
54746;BMP180;40640;48.130;11.356;2022-08-21T09:14:14;95724.00;;;32.10
54746;BMP180;40640;48.130;11.356;2022-08-21T09:18:33;95731.00;;;31.80
54746;BMP180;40640;48.130;11.356;2022-08-21T09:22:43;95725.00;;;32.30
54746;BMP180;40640;48.130;11.356;2022-08-21T09:27:06;95730.00;;;32.40
54746;BMP180;40640;48.130;11.356;2022-08-21T09:31:14;95758.00;;;31.50
54746;BMP180;40640;48.130;11.356;2022-08-21T09:35:20;95760.00;;;28.70
54746;BMP180;40640;48.130;11.356;2022-08-21T09:39:27;95743.00;;;29.40
54746;BMP180;40640;48.130;11.356;2022-08-21T09:43:31;95724.00;;;29.50
54746;BMP180;40640;48.130;11.356;2022-08-21T09:47:35;95753.00;;;30.70
54746;BMP180;40640;48.130;11.356;2022-08-21T09:51:50;95765.00;;;28.50
54746;BMP180;40640;48.130;11.356;2022-08-21T09:55:54;95757.00;;;27.50
54746;BMP180;40640;48.130;11.356;2022-08-21T10:00:19;95754.00;;;27.30
54746;BMP180;40640;48.130;11.356;2022-08-21T10:04:30;95751.00;;;28.80
54746;BMP180;40640;48.130;11.356;2022-08-21T10:08:33;95755.00;;;27.60
54746;BMP180;40640;48.130;11.356;2022-08-21T10:12:44;95749.00;;;26.60
54746;BMP180;40640;48.130;11.356;2022-08-21T10:16:57;95749.00;;;26.10
54746;BMP180;40640;48.130;11.356;2022-08-21T10:21:10;95714.00;;;27.30
54746;BMP180;40640;48.130;11.356;2022-08-21T10:25:20;95695.00;;;29.50
54746;BMP180;40640;48.130;11.356;2022-08-21T10:29:38;95697.00;;;30.10
54746;BMP180;40640;48.130;11.356;2022-08-21T10:33:44;95702.00;;;31.70
54746;BMP180;40640;48.130;11.356;2022-08-21T10:38:01;95721.00;;;29.70
54746;BMP180;40640;48.130;11.356;2022-08-21T10:42:12;95682.00;;;31.00
54746;BMP180;40640;48.130;11.356;2022-08-21T10:46:22;95728.00;;;29.80
54746;BMP180;40640;48.130;11.356;2022-08-21T10:50:31;95722.00;;;27.80
54746;BMP180;40640;48.130;11.356;2022-08-21T10:54:47;95732.00;;;27.20
54746;BMP180;40640;48.130;11.356;2022-08-21T10:59:04;95734.00;;;27.00
54746;BMP180;40640;48.130;11.356;2022-08-21T11:03:12;95726.00;;;27.10
54746;BMP180;40640;48.130;11.356;2022-08-21T11:07:20;95674.00;;;28.20
54746;BMP180;40640;48.130;11.356;2022-08-21T11:11:29;95671.00;;;31.00
54746;BMP180;40640;48.130;11.356;2022-08-21T11:15:41;95669.00;;;30.40
54746;BMP180;40640;48.130;11.356;2022-08-21T11:19:50;95659.00;;;31.50
54746;BMP180;40640;48.130;11.356;2022-08-21T11:24:00;95657.00;;;31.30
54746;BMP180;40640;48.130;11.356;2022-08-21T11:28:10;95656.00;;;32.00
54746;BMP180;40640;48.130;11.356;2022-08-21T11:32:29;95658.00;;;32.60
54746;BMP180;40640;48.130;11.356;2022-08-21T11:36:39;95657.00;;;32.10
54746;BMP180;40640;48.130;11.356;2022-08-21T11:41:03;95679.00;;;32.50
54746;BMP180;40640;48.130;11.356;2022-08-21T11:45:18;95679.00;;;32.70
54746;BMP180;40640;48.130;11.356;2022-08-21T11:49:41;95691.00;;;30.90
54746;BMP180;40640;48.130;11.356;2022-08-21T11:53:49;95698.00;;;29.20
54746;BMP180;40640;48.130;11.356;2022-08-21T11:57:57;95693.00;;;28.90
54746;BMP180;40640;48.130;11.356;2022-08-21T12:02:07;95689.00;;;28.40
54746;BMP180;40640;48.130;11.356;2022-08-21T12:06:14;95686.00;;;27.70
54746;BMP180;40640;48.130;11.356;2022-08-21T12:10:32;95685.00;;;27.70
54746;BMP180;40640;48.130;11.356;2022-08-21T12:14:37;95679.00;;;28.50
54746;BMP180;40640;48.130;11.356;2022-08-21T12:18:42;95636.00;;;33.80
54746;BMP180;40640;48.130;11.356;2022-08-21T12:22:51;95618.00;;;42.40
54746;BMP180;40640;48.130;11.356;2022-08-21T12:26:56;95609.00;;;46.70
54746;BMP180;40640;48.130;11.356;2022-08-21T12:30:59;95602.00;;;48.30
54746;BMP180;40640;48.130;11.356;2022-08-21T12:35:10;95602.00;;;48.80
54746;BMP180;40640;48.130;11.356;2022-08-21T12:39:27;95605.00;;;48.80
54746;BMP180;40640;48.130;11.356;2022-08-21T12:43:35;95606.00;;;48.10
54746;BMP180;40640;48.130;11.356;2022-08-21T12:47:45;95613.00;;;46.40
54746;BMP180;40640;48.130;11.356;2022-08-21T12:51:54;95603.00;;;48.90
54746;BMP180;40640;48.130;11.356;2022-08-21T12:56:01;95617.00;;;43.40
54746;BMP180;40640;48.130;11.356;2022-08-21T13:00:08;95613.00;;;44.60
54746;BMP180;40640;48.130;11.356;2022-08-21T13:04:16;95591.00;;;48.80
54746;BMP180;40640;48.130;11.356;2022-08-21T13:08:24;95598.00;;;48.80
54746;BMP180;40640;48.130;11.356;2022-08-21T13:12:29;95607.00;;;46.20
54746;BMP180;40640;48.130;11.356;2022-08-21T13:16:33;95652.00;;;40.10
54746;BMP180;40640;48.130;11.356;2022-08-21T13:20:39;95665.00;;;34.90
54746;BMP180;40640;48.130;11.356;2022-08-21T13:24:47;95666.00;;;32.90
54746;BMP180;40640;48.130;11.356;2022-08-21T13:28:50;95636.00;;;37.70
54746;BMP180;40640;48.130;11.356;2022-08-21T13:32:56;95610.00;;;42.70
54746;BMP180;40640;48.130;11.356;2022-08-21T13:37:01;95607.00;;;44.20
54746;BMP180;40640;48.130;11.356;2022-08-21T13:41:12;95612.00;;;43.80
54746;BMP180;40640;48.130;11.356;2022-08-21T13:45:24;95611.00;;;43.30
54746;BMP180;40640;48.130;11.356;2022-08-21T13:49:31;95606.00;;;43.00
54746;BMP180;40640;48.130;11.356;2022-08-21T13:53:35;95611.00;;;39.90
54746;BMP180;40640;48.130;11.356;2022-08-21T13:57:40;95626.00;;;35.70
54746;BMP180;40640;48.130;11.356;2022-08-21T14:01:49;95624.00;;;37.40
54746;BMP180;40640;48.130;11.356;2022-08-21T14:05:56;95620.00;;;35.20
54746;BMP180;40640;48.130;11.356;2022-08-21T14:10:02;95652.00;;;33.70
54746;BMP180;40640;48.130;11.356;2022-08-21T14:14:17;95661.00;;;31.50
54746;BMP180;40640;48.130;11.356;2022-08-21T14:18:23;95658.00;;;30.60
54746;BMP180;40640;48.130;11.356;2022-08-21T14:22:35;95652.00;;;30.30
54746;BMP180;40640;48.130;11.356;2022-08-21T14:26:46;95649.00;;;29.10
54746;BMP180;40640;48.130;11.356;2022-08-21T14:30:51;95655.00;;;28.80
54746;BMP180;40640;48.130;11.356;2022-08-21T14:34:54;95637.00;;;28.80
54746;BMP180;40640;48.130;11.356;2022-08-21T14:38:59;95636.00;;;29.40
54746;BMP180;40640;48.130;11.356;2022-08-21T14:43:03;95633.00;;;29.50
54746;BMP180;40640;48.130;11.356;2022-08-21T14:47:07;95633.00;;;29.60
54746;BMP180;40640;48.130;11.356;2022-08-21T14:51:11;95635.00;;;29.60
54746;BMP180;40640;48.130;11.356;2022-08-21T14:55:15;95632.00;;;29.60
54746;BMP180;40640;48.130;11.356;2022-08-21T14:59:18;95635.00;;;29.10
54746;BMP180;40640;48.130;11.356;2022-08-21T15:03:22;95629.00;;;29.10
54746;BMP180;40640;48.130;11.356;2022-08-21T15:07:25;95620.00;;;29.10
54746;BMP180;40640;48.130;11.356;2022-08-21T15:11:28;95626.00;;;29.00
54746;BMP180;40640;48.130;11.356;2022-08-21T15:15:45;95618.00;;;28.90
54746;BMP180;40640;48.130;11.356;2022-08-21T15:19:51;95626.00;;;28.60
54746;BMP180;40640;48.130;11.356;2022-08-21T15:23:54;95623.00;;;28.40
54746;BMP180;40640;48.130;11.356;2022-08-21T15:27:58;95626.00;;;28.30
54746;BMP180;40640;48.130;11.356;2022-08-21T15:32:14;95625.00;;;28.30
54746;BMP180;40640;48.130;11.356;2022-08-21T15:36:18;95621.00;;;28.20
54746;BMP180;40640;48.130;11.356;2022-08-21T15:40:21;95617.00;;;28.00
54746;BMP180;40640;48.130;11.356;2022-08-21T15:44:25;95616.00;;;27.70
54746;BMP180;40640;48.130;11.356;2022-08-21T15:48:29;95615.00;;;27.10
54746;BMP180;40640;48.130;11.356;2022-08-21T15:52:34;95613.00;;;27.60
54746;BMP180;40640;48.130;11.356;2022-08-21T15:56:39;95610.00;;;27.00
54746;BMP180;40640;48.130;11.356;2022-08-21T16:00:42;95605.00;;;27.10
54746;BMP180;40640;48.130;11.356;2022-08-21T16:04:46;95604.00;;;27.10
54746;BMP180;40640;48.130;11.356;2022-08-21T16:08:50;95603.00;;;26.90
54746;BMP180;40640;48.130;11.356;2022-08-21T16:12:56;95601.00;;;26.70
54746;BMP180;40640;48.130;11.356;2022-08-21T16:17:00;95603.00;;;26.50
54746;BMP180;40640;48.130;11.356;2022-08-21T16:21:03;95603.00;;;26.30
54746;BMP180;40640;48.130;11.356;2022-08-21T16:25:08;95597.00;;;26.30
54746;BMP180;40640;48.130;11.356;2022-08-21T16:29:11;95599.00;;;26.10
54746;BMP180;40640;48.130;11.356;2022-08-21T16:33:20;95588.00;;;25.80
54746;BMP180;40640;48.130;11.356;2022-08-21T16:37:23;95586.00;;;25.70
54746;BMP180;40640;48.130;11.356;2022-08-21T16:41:31;95577.00;;;25.60
54746;BMP180;40640;48.130;11.356;2022-08-21T16:45:34;95581.00;;;25.60
54746;BMP180;40640;48.130;11.356;2022-08-21T16:49:37;95582.00;;;25.50
54746;BMP180;40640;48.130;11.356;2022-08-21T16:53:40;95577.00;;;25.20
54746;BMP180;40640;48.130;11.356;2022-08-21T16:57:45;95578.00;;;25.20
54746;BMP180;40640;48.130;11.356;2022-08-21T17:01:48;95577.00;;;25.20
54746;BMP180;40640;48.130;11.356;2022-08-21T17:05:51;95578.00;;;24.90
54746;BMP180;40640;48.130;11.356;2022-08-21T17:09:54;95579.00;;;24.60
54746;BMP180;40640;48.130;11.356;2022-08-21T17:14:00;95580.00;;;24.70
54746;BMP180;40640;48.130;11.356;2022-08-21T17:18:09;95577.00;;;24.70
54746;BMP180;40640;48.130;11.356;2022-08-21T17:22:12;95580.00;;;24.50
54746;BMP180;40640;48.130;11.356;2022-08-21T17:26:15;95581.00;;;24.50
54746;BMP180;40640;48.130;11.356;2022-08-21T17:30:21;95583.00;;;24.30
54746;BMP180;40640;48.130;11.356;2022-08-21T17:34:24;95580.00;;;24.20
54746;BMP180;40640;48.130;11.356;2022-08-21T17:38:32;95581.00;;;24.00
54746;BMP180;40640;48.130;11.356;2022-08-21T17:42:35;95587.00;;;23.80
54746;BMP180;40640;48.130;11.356;2022-08-21T17:46:40;95581.00;;;23.70
54746;BMP180;40640;48.130;11.356;2022-08-21T17:50:43;95588.00;;;23.70
54746;BMP180;40640;48.130;11.356;2022-08-21T17:54:46;95588.00;;;23.50
54746;BMP180;40640;48.130;11.356;2022-08-21T17:58:49;95596.00;;;23.40
54746;BMP180;40640;48.130;11.356;2022-08-21T18:03:00;95590.00;;;23.30
54746;BMP180;40640;48.130;11.356;2022-08-21T18:07:04;95598.00;;;23.20
54746;BMP180;40640;48.130;11.356;2022-08-21T18:11:07;95593.00;;;23.00
54746;BMP180;40640;48.130;11.356;2022-08-21T18:15:16;95603.00;;;22.80
54746;BMP180;40640;48.130;11.356;2022-08-21T18:19:21;95605.00;;;22.60
54746;BMP180;40640;48.130;11.356;2022-08-21T18:23:26;95611.00;;;22.50
54746;BMP180;40640;48.130;11.356;2022-08-21T18:27:45;95616.00;;;22.30
54746;BMP180;40640;48.130;11.356;2022-08-21T18:31:48;95618.00;;;22.20
54746;BMP180;40640;48.130;11.356;2022-08-21T18:35:53;95621.00;;;22.10
54746;BMP180;40640;48.130;11.356;2022-08-21T18:39:59;95624.00;;;21.90
54746;BMP180;40640;48.130;11.356;2022-08-21T18:44:02;95626.00;;;21.80
54746;BMP180;40640;48.130;11.356;2022-08-21T18:48:06;95628.00;;;21.60
54746;BMP180;40640;48.130;11.356;2022-08-21T18:52:11;95626.00;;;21.50
54746;BMP180;40640;48.130;11.356;2022-08-21T18:56:21;95620.00;;;21.30
54746;BMP180;40640;48.130;11.356;2022-08-21T19:00:27;95626.00;;;20.80
54746;BMP180;40640;48.130;11.356;2022-08-21T19:04:30;95622.00;;;20.60
54746;BMP180;40640;48.130;11.356;2022-08-21T19:08:46;95622.00;;;20.60
54746;BMP180;40640;48.130;11.356;2022-08-21T19:12:49;95631.00;;;20.70
54746;BMP180;40640;48.130;11.356;2022-08-21T19:16:52;95631.00;;;20.70
54746;BMP180;40640;48.130;11.356;2022-08-21T19:20:55;95632.00;;;20.60
54746;BMP180;40640;48.130;11.356;2022-08-21T19:24:59;95634.00;;;20.20
54746;BMP180;40640;48.130;11.356;2022-08-21T19:29:06;95627.00;;;19.80
54746;BMP180;40640;48.130;11.356;2022-08-21T19:33:11;95628.00;;;19.50
54746;BMP180;40640;48.130;11.356;2022-08-21T19:37:24;95632.00;;;19.50
54746;BMP180;40640;48.130;11.356;2022-08-21T19:41:33;95632.00;;;19.50
54746;BMP180;40640;48.130;11.356;2022-08-21T19:45:37;95631.00;;;19.40
54746;BMP180;40640;48.130;11.356;2022-08-21T19:49:42;95628.00;;;18.90
54746;BMP180;40640;48.130;11.356;2022-08-21T19:53:46;95634.00;;;18.90
54746;BMP180;40640;48.130;11.356;2022-08-21T19:57:59;95633.00;;;18.90
54746;BMP180;40640;48.130;11.356;2022-08-21T20:02:03;95629.00;;;19.00
54746;BMP180;40640;48.130;11.356;2022-08-21T20:06:06;95627.00;;;18.90
54746;BMP180;40640;48.130;11.356;2022-08-21T20:10:10;95626.00;;;19.00
54746;BMP180;40640;48.130;11.356;2022-08-21T20:14:16;95632.00;;;18.90
54746;BMP180;40640;48.130;11.356;2022-08-21T20:18:20;95629.00;;;18.90
54746;BMP180;40640;48.130;11.356;2022-08-21T20:22:27;95621.00;;;18.90
54746;BMP180;40640;48.130;11.356;2022-08-21T20:26:30;95616.00;;;18.70
54746;BMP180;40640;48.130;11.356;2022-08-21T20:30:35;95619.00;;;18.70
54746;BMP180;40640;48.130;11.356;2022-08-21T20:34:47;95608.00;;;18.70
54746;BMP180;40640;48.130;11.356;2022-08-21T20:38:52;95609.00;;;18.40
54746;BMP180;40640;48.130;11.356;2022-08-21T20:42:55;95612.00;;;18.30
54746;BMP180;40640;48.130;11.356;2022-08-21T20:47:00;95616.00;;;18.10
54746;BMP180;40640;48.130;11.356;2022-08-21T20:51:12;95605.00;;;17.80
54746;BMP180;40640;48.130;11.356;2022-08-21T20:55:18;95606.00;;;17.50
54746;BMP180;40640;48.130;11.356;2022-08-21T20:59:46;95604.00;;;17.20
54746;BMP180;40640;48.130;11.356;2022-08-21T21:04:00;95610.00;;;17.20
54746;BMP180;40640;48.130;11.356;2022-08-21T21:08:08;95606.00;;;17.30
54746;BMP180;40640;48.130;11.356;2022-08-21T21:12:17;95599.00;;;17.10
54746;BMP180;40640;48.130;11.356;2022-08-21T21:16:32;95599.00;;;17.10
54746;BMP180;40640;48.130;11.356;2022-08-21T21:20:43;95605.00;;;17.10
54746;BMP180;40640;48.130;11.356;2022-08-21T21:24:53;95600.00;;;16.90
54746;BMP180;40640;48.130;11.356;2022-08-21T21:28:59;95596.00;;;16.80
54746;BMP180;40640;48.130;11.356;2022-08-21T21:33:05;95602.00;;;16.80
54746;BMP180;40640;48.130;11.356;2022-08-21T21:37:15;95608.00;;;16.80
54746;BMP180;40640;48.130;11.356;2022-08-21T21:41:30;95600.00;;;16.80
54746;BMP180;40640;48.130;11.356;2022-08-21T21:45:55;95607.00;;;17.10
54746;BMP180;40640;48.130;11.356;2022-08-21T21:50:19;95606.00;;;16.90
54746;BMP180;40640;48.130;11.356;2022-08-21T21:54:44;95605.00;;;17.10
54746;BMP180;40640;48.130;11.356;2022-08-21T21:59:19;95605.00;;;16.90
54746;BMP180;40640;48.130;11.356;2022-08-21T22:03:35;95605.00;;;16.60
54746;BMP180;40640;48.130;11.356;2022-08-21T22:07:46;95599.00;;;16.70
54746;BMP180;40640;48.130;11.356;2022-08-21T22:12:00;95601.00;;;16.80
54746;BMP180;40640;48.130;11.356;2022-08-21T22:16:05;95596.00;;;16.80
54746;BMP180;40640;48.130;11.356;2022-08-21T22:24:32;95596.00;;;16.50
54746;BMP180;40640;48.130;11.356;2022-08-21T22:28:40;95596.00;;;16.30
54746;BMP180;40640;48.130;11.356;2022-08-21T22:32:47;95588.00;;;16.10
54746;BMP180;40640;48.130;11.356;2022-08-21T22:36:56;95587.00;;;16.00
54746;BMP180;40640;48.130;11.356;2022-08-21T22:41:09;95595.00;;;15.70
54746;BMP180;40640;48.130;11.356;2022-08-21T22:45:19;95595.00;;;16.00
54746;BMP180;40640;48.130;11.356;2022-08-21T22:49:28;95594.00;;;16.00
54746;BMP180;40640;48.130;11.356;2022-08-21T22:53:42;95597.00;;;15.70
54746;BMP180;40640;48.130;11.356;2022-08-21T22:58:02;95592.00;;;15.60
54746;BMP180;40640;48.130;11.356;2022-08-21T23:02:23;95590.00;;;15.40
54746;BMP180;40640;48.130;11.356;2022-08-21T23:06:29;95586.00;;;15.40
54746;BMP180;40640;48.130;11.356;2022-08-21T23:10:40;95576.00;;;15.30
54746;BMP180;40640;48.130;11.356;2022-08-21T23:14:43;95578.00;;;15.20
54746;BMP180;40640;48.130;11.356;2022-08-21T23:19:02;95580.00;;;15.20
54746;BMP180;40640;48.130;11.356;2022-08-21T23:23:15;95569.00;;;15.40
54746;BMP180;40640;48.130;11.356;2022-08-21T23:27:27;95578.00;;;15.40